Asuzanmaru — JD2969 — position and weather

sailwx.info

Track history (hours):
 
Tides and Currents Weather Stations Pressure Air Temp Water Temp Dewpoint Dewpoint Depression Visibility Wind Speed Wind Dir Waves Ship Positions

Asuzanmaru

Last reported at 2018-Jun-24 07:43 UTC. Time now 2018-Jun-24 22:37 UTC.
Position N 34°21' E 134°21'.

Length 65 m; draft 3.7 m.

Type: Tanker. MMSI: 431001002.

Date/timePositionNaut miles runAvg speedWind from/ knotsBaromVisibWave heightAir tempDewpointWater temp
2018-Jun-24 07:43N 34°21' E 134°21'2511.1
2018-Jun-24 05:27N 34°07' E 134°46'611.6
2018-Jun-24 04:58N 34°02' E 134°50'611.4
2018-Jun-24 04:29N 33°58' E 134°55'511.0
2018-Jun-24 03:59N 33°54' E 134°59'510.5
2018-Jun-24 03:29N 33°50' E 135°03'247 6.0
2018-Jun-22 10:22N 35°12' E 139°45'411.5
2018-Jun-22 10:00N 35°16' E 139°46'611.8
2018-Jun-22 09:30N 35°21' E 139°42'611.3
2018-Jun-22 09:00N 35°26' E 139°46'612.1
2018-Jun-22 08:30N 35°30' E 139°52'4 0.4
2018-Jun-21 22:56N 35°30' E 139°57'510.9
2018-Jun-21 22:30N 35°28' E 139°51'511.1
2018-Jun-21 22:01N 35°24' E 139°47'611.3
2018-Jun-21 21:30N 35°19' E 139°44'510.3
2018-Jun-21 21:00N 35°14' E 139°47'710.6
2018-Jun-21 20:23N 35°08' E 139°45'  
2018-Jun-18 21:53N 35°12' E 139°45'511.8
2018-Jun-18 21:30N 35°16' E 139°46'612.0
2018-Jun-18 21:01N 35°22' E 139°43'1 2.5
2018-Jun-18 20:25N 35°23' E 139°44'0 0.0
2018-Jun-18 19:58N 35°23' E 139°44'0 0.0
2018-Jun-18 19:28N 35°23' E 139°44'0 0.0
2018-Jun-18 18:58N 35°23' E 139°44'0 0.0
2018-Jun-18 18:28N 35°23' E 139°44'0 0.0
2018-Jun-18 17:58N 35°23' E 139°44'0 0.0
2018-Jun-18 17:28N 35°23' E 139°44'0 0.0
2018-Jun-18 16:58N 35°23' E 139°44'0 0.0
2018-Jun-18 16:28N 35°23' E 139°44'0 0.0
2018-Jun-18 15:55N 35°23' E 139°44'0 0.0
2018-Jun-18 15:28N 35°23' E 139°44'0 0.0
2018-Jun-18 14:58N 35°23' E 139°44'0 0.0
2018-Jun-18 14:28N 35°23' E 139°44'0 0.0
2018-Jun-18 13:58N 35°23' E 139°44'0 0.0
2018-Jun-18 13:28N 35°23' E 139°44'0 0.0
2018-Jun-18 12:58N 35°23' E 139°44'0 0.0
2018-Jun-18 12:28N 35°23' E 139°44'0 0.0
2018-Jun-18 11:58N 35°23' E 139°44'0 0.0
2018-Jun-18 11:25N 35°23' E 139°44'0 0.0
2018-Jun-18 10:58N 35°23' E 139°44'0 0.0
2018-Jun-18 10:25N 35°23' E 139°44'0 0.0
2018-Jun-18 09:58N 35°23' E 139°44'0 0.0
2018-Jun-18 09:28N 35°23' E 139°44'0 0.0
2018-Jun-18 08:58N 35°23' E 139°44'0 0.1
2018-Jun-18 08:28N 35°23' E 139°44'0 0.0
2018-Jun-18 08:01N 35°23' E 139°44'0 0.1
2018-Jun-18 07:30N 35°23' E 139°44'0 0.0
2018-Jun-18 07:01N 35°23' E 139°44'0 0.0
2018-Jun-18 06:30N 35°23' E 139°44'0 0.1
2018-Jun-18 06:00N 35°23' E 139°44'0 0.0
2018-Jun-18 05:31N 35°23' E 139°44'0 0.0
2018-Jun-18 05:01N 35°23' E 139°44'0 0.0
2018-Jun-18 04:30N 35°23' E 139°44'0 0.0
2018-Jun-18 04:00N 35°23' E 139°44'0 0.0
2018-Jun-18 03:30N 35°23' E 139°44'4 7.3
2018-Jun-18 03:01N 35°27' E 139°43'3 5.7
2018-Jun-18 02:31N 35°29' E 139°43'0 0.0
2018-Jun-18 02:01N 35°29' E 139°43'0 0.0
2018-Jun-18 01:30N 35°29' E 139°43'0 0.0
2018-Jun-18 01:01N 35°29' E 139°43'0 0.0
2018-Jun-18 00:30N 35°29' E 139°43'0 0.0
2018-Jun-18 00:01N 35°29' E 139°43'0 0.1
2018-Jun-17 23:31N 35°29' E 139°43'1 1.5
2018-Jun-17 23:00N 35°29' E 139°42'4 8.7
2018-Jun-17 22:31N 35°25' E 139°44'1 2.9
2018-Jun-17 22:01N 35°23' E 139°44'3 6.7
2018-Jun-17 21:30N 35°20' E 139°43'511.0
2018-Jun-17 21:00N 35°16' E 139°47'810.4
2018-Jun-17 20:15N 35°08' E 139°45'4 0.1
2018-Jun-15 23:16N 35°12' E 139°46'413.2
2018-Jun-15 22:58N 35°16' E 139°46'613.4
2018-Jun-15 22:30N 35°21' E 139°42'612.5
2018-Jun-15 22:01N 35°27' E 139°40'2 3.5
2018-Jun-15 21:30N 35°29' E 139°39'0 0.0
2018-Jun-15 21:00N 35°29' E 139°39'0 0.0
2018-Jun-15 20:30N 35°29' E 139°39'0 0.0
2018-Jun-15 20:00N 35°29' E 139°39'0 0.0
2018-Jun-15 19:30N 35°29' E 139°39'0 0.0
2018-Jun-15 19:00N 35°29' E 139°39'0 0.0
2018-Jun-15 18:30N 35°29' E 139°39'0 0.0
2018-Jun-15 18:00N 35°29' E 139°39'0 0.0
2018-Jun-15 17:30N 35°29' E 139°39'0 0.0
2018-Jun-15 17:00N 35°29' E 139°39'0 0.0
2018-Jun-15 16:30N 35°29' E 139°39'0 0.0
2018-Jun-15 16:00N 35°29' E 139°39'0 0.0
2018-Jun-15 15:30N 35°29' E 139°39'0 0.0
2018-Jun-15 15:00N 35°29' E 139°39'0 0.0
2018-Jun-15 14:30N 35°29' E 139°39'0 0.0
2018-Jun-15 14:00N 35°29' E 139°39'0 0.0
2018-Jun-15 13:30N 35°29' E 139°39'0 0.0
2018-Jun-15 13:00N 35°29' E 139°39'0 0.0
2018-Jun-15 12:30N 35°29' E 139°39'0 0.0
2018-Jun-15 12:00N 35°29' E 139°39'0 0.0
2018-Jun-15 11:30N 35°29' E 139°39'0 0.0
2018-Jun-15 11:00N 35°29' E 139°39'0 0.0
2018-Jun-15 10:30N 35°29' E 139°39'0 0.0
2018-Jun-15 10:00N 35°29' E 139°39'0 0.0
2018-Jun-15 09:30N 35°29' E 139°39'0 0.0
2018-Jun-15 09:00N 35°29' E 139°39'0 0.0
2018-Jun-15 08:30N 35°29' E 139°39'0 0.0
2018-Jun-15 08:00N 35°29' E 139°39'0 0.0
2018-Jun-15 07:30N 35°29' E 139°39'0 0.0
2018-Jun-15 07:00N 35°29' E 139°39'0 0.1
2018-Jun-15 06:31N 35°29' E 139°39'4 7.3
2018-Jun-15 06:00N 35°27' E 139°43'2 3.4
2018-Jun-15 05:30N 35°28' E 139°42'3 6.8
2018-Jun-15 05:00N 35°31' E 139°45'0 0.0
2018-Jun-15 04:30N 35°31' E 139°45'0 0.0
2018-Jun-15 03:41N 35°31' E 139°45'0 0.0
2018-Jun-15 03:24N 35°31' E 139°45'0 0.0
2018-Jun-15 02:56N 35°31' E 139°45'0 0.0
2018-Jun-15 02:30N 35°31' E 139°45'0 0.0
2018-Jun-15 02:00N 35°31' E 139°45'1 2.2
2018-Jun-15 01:30N 35°30' E 139°44'4 7.7
2018-Jun-15 01:00N 35°26' E 139°43'2 4.3
2018-Jun-15 00:30N 35°24' E 139°44'0 0.0
2018-Jun-15 00:00N 35°24' E 139°44'0 0.0
2018-Jun-14 23:30N 35°24' E 139°44'0 0.0
2018-Jun-14 23:00N 35°24' E 139°44'0 0.0
2018-Jun-14 22:30N 35°24' E 139°44'0 0.0
2018-Jun-14 21:57N 35°24' E 139°44'0 0.0
2018-Jun-14 21:30N 35°24' E 139°44'0 0.1
2018-Jun-14 21:00N 35°24' E 139°44'5 9.2
2018-Jun-14 20:30N 35°20' E 139°43'610.5
2018-Jun-14 19:59N 35°15' E 139°47'510.4
2018-Jun-14 19:29N 35°10' E 139°45'  
Track history (hours):
 
Tides and Currents Weather Stations Pressure Air Temp Water Temp Dewpoint Dewpoint Depression Visibility Wind Speed Wind Dir Waves Ship Positions

Asuzanmaru

Last reported at 2018-Jun-24 07:43 UTC. Time now 2018-Jun-24 22:37 UTC.
Position N 34°21' E 134°21'.

Length 65 m; draft 3.7 m.

Type: Tanker. MMSI: 431001002.

Date/timePositionNaut miles runAvg speedWind from/ knotsBaromVisibWave heightAir tempDewpointWater temp
2018-Jun-24 07:43N 34°21' E 134°21'2511.1
2018-Jun-24 05:27N 34°07' E 134°46'611.6
2018-Jun-24 04:58N 34°02' E 134°50'611.4
2018-Jun-24 04:29N 33°58' E 134°55'511.0
2018-Jun-24 03:59N 33°54' E 134°59'510.5
2018-Jun-24 03:29N 33°50' E 135°03'247 6.0
2018-Jun-22 10:22N 35°12' E 139°45'411.5
2018-Jun-22 10:00N 35°16' E 139°46'611.8
2018-Jun-22 09:30N 35°21' E 139°42'611.3
2018-Jun-22 09:00N 35°26' E 139°46'612.1
2018-Jun-22 08:30N 35°30' E 139°52'4 0.4
2018-Jun-21 22:56N 35°30' E 139°57'510.9
2018-Jun-21 22:30N 35°28' E 139°51'511.1
2018-Jun-21 22:01N 35°24' E 139°47'611.3
2018-Jun-21 21:30N 35°19' E 139°44'510.3
2018-Jun-21 21:00N 35°14' E 139°47'710.6
2018-Jun-21 20:23N 35°08' E 139°45'  
2018-Jun-18 21:53N 35°12' E 139°45'511.8
2018-Jun-18 21:30N 35°16' E 139°46'612.0
2018-Jun-18 21:01N 35°22' E 139°43'1 2.5
2018-Jun-18 20:25N 35°23' E 139°44'0 0.0
2018-Jun-18 19:58N 35°23' E 139°44'0 0.0
2018-Jun-18 19:28N 35°23' E 139°44'0 0.0
2018-Jun-18 18:58N 35°23' E 139°44'0 0.0
2018-Jun-18 18:28N 35°23' E 139°44'0 0.0
2018-Jun-18 17:58N 35°23' E 139°44'0 0.0
2018-Jun-18 17:28N 35°23' E 139°44'0 0.0
2018-Jun-18 16:58N 35°23' E 139°44'0 0.0
2018-Jun-18 16:28N 35°23' E 139°44'0 0.0
2018-Jun-18 15:55N 35°23' E 139°44'0 0.0
2018-Jun-18 15:28N 35°23' E 139°44'0 0.0
2018-Jun-18 14:58N 35°23' E 139°44'0 0.0
2018-Jun-18 14:28N 35°23' E 139°44'0 0.0
2018-Jun-18 13:58N 35°23' E 139°44'0 0.0
2018-Jun-18 13:28N 35°23' E 139°44'0 0.0
2018-Jun-18 12:58N 35°23' E 139°44'0 0.0
2018-Jun-18 12:28N 35°23' E 139°44'0 0.0
2018-Jun-18 11:58N 35°23' E 139°44'0 0.0
2018-Jun-18 11:25N 35°23' E 139°44'0 0.0
2018-Jun-18 10:58N 35°23' E 139°44'0 0.0
2018-Jun-18 10:25N 35°23' E 139°44'0 0.0
2018-Jun-18 09:58N 35°23' E 139°44'0 0.0
2018-Jun-18 09:28N 35°23' E 139°44'0 0.0
2018-Jun-18 08:58N 35°23' E 139°44'0 0.1
2018-Jun-18 08:28N 35°23' E 139°44'0 0.0
2018-Jun-18 08:01N 35°23' E 139°44'0 0.1
2018-Jun-18 07:30N 35°23' E 139°44'0 0.0
2018-Jun-18 07:01N 35°23' E 139°44'0 0.0
2018-Jun-18 06:30N 35°23' E 139°44'0 0.1
2018-Jun-18 06:00N 35°23' E 139°44'0 0.0
2018-Jun-18 05:31N 35°23' E 139°44'0 0.0
2018-Jun-18 05:01N 35°23' E 139°44'0 0.0
2018-Jun-18 04:30N 35°23' E 139°44'0 0.0
2018-Jun-18 04:00N 35°23' E 139°44'0 0.0
2018-Jun-18 03:30N 35°23' E 139°44'4 7.3
2018-Jun-18 03:01N 35°27' E 139°43'3 5.7
2018-Jun-18 02:31N 35°29' E 139°43'0 0.0
2018-Jun-18 02:01N 35°29' E 139°43'0 0.0
2018-Jun-18 01:30N 35°29' E 139°43'0 0.0
2018-Jun-18 01:01N 35°29' E 139°43'0 0.0
2018-Jun-18 00:30N 35°29' E 139°43'0 0.0
2018-Jun-18 00:01N 35°29' E 139°43'0 0.1
2018-Jun-17 23:31N 35°29' E 139°43'1 1.5
2018-Jun-17 23:00N 35°29' E 139°42'4 8.7
2018-Jun-17 22:31N 35°25' E 139°44'1 2.9
2018-Jun-17 22:01N 35°23' E 139°44'3 6.7
2018-Jun-17 21:30N 35°20' E 139°43'511.0
2018-Jun-17 21:00N 35°16' E 139°47'810.4
2018-Jun-17 20:15N 35°08' E 139°45'4 0.1
2018-Jun-15 23:16N 35°12' E 139°46'413.2
2018-Jun-15 22:58N 35°16' E 139°46'613.4
2018-Jun-15 22:30N 35°21' E 139°42'612.5
2018-Jun-15 22:01N 35°27' E 139°40'2 3.5
2018-Jun-15 21:30N 35°29' E 139°39'0 0.0
2018-Jun-15 21:00N 35°29' E 139°39'0 0.0
2018-Jun-15 20:30N 35°29' E 139°39'0 0.0
2018-Jun-15 20:00N 35°29' E 139°39'0 0.0
2018-Jun-15 19:30N 35°29' E 139°39'0 0.0
2018-Jun-15 19:00N 35°29' E 139°39'0 0.0
2018-Jun-15 18:30N 35°29' E 139°39'0 0.0
2018-Jun-15 18:00N 35°29' E 139°39'0 0.0
2018-Jun-15 17:30N 35°29' E 139°39'0 0.0
2018-Jun-15 17:00N 35°29' E 139°39'0 0.0
2018-Jun-15 16:30N 35°29' E 139°39'0 0.0
2018-Jun-15 16:00N 35°29' E 139°39'0 0.0
2018-Jun-15 15:30N 35°29' E 139°39'0 0.0
2018-Jun-15 15:00N 35°29' E 139°39'0 0.0
2018-Jun-15 14:30N 35°29' E 139°39'0 0.0
2018-Jun-15 14:00N 35°29' E 139°39'0 0.0
2018-Jun-15 13:30N 35°29' E 139°39'0 0.0
2018-Jun-15 13:00N 35°29' E 139°39'0 0.0
2018-Jun-15 12:30N 35°29' E 139°39'0 0.0
2018-Jun-15 12:00N 35°29' E 139°39'0 0.0
2018-Jun-15 11:30N 35°29' E 139°39'0 0.0
2018-Jun-15 11:00N 35°29' E 139°39'0 0.0
2018-Jun-15 10:30N 35°29' E 139°39'0 0.0
2018-Jun-15 10:00N 35°29' E 139°39'0 0.0
2018-Jun-15 09:30N 35°29' E 139°39'0 0.0
2018-Jun-15 09:00N 35°29' E 139°39'0 0.0
2018-Jun-15 08:30N 35°29' E 139°39'0 0.0
2018-Jun-15 08:00N 35°29' E 139°39'0 0.0
2018-Jun-15 07:30N 35°29' E 139°39'0 0.0
2018-Jun-15 07:00N 35°29' E 139°39'0 0.1
2018-Jun-15 06:31N 35°29' E 139°39'4 7.3
2018-Jun-15 06:00N 35°27' E 139°43'2 3.4
2018-Jun-15 05:30N 35°28' E 139°42'3 6.8
2018-Jun-15 05:00N 35°31' E 139°45'0 0.0
2018-Jun-15 04:30N 35°31' E 139°45'0 0.0
2018-Jun-15 03:41N 35°31' E 139°45'0 0.0
2018-Jun-15 03:24N 35°31' E 139°45'0 0.0
2018-Jun-15 02:56N 35°31' E 139°45'0 0.0
2018-Jun-15 02:30N 35°31' E 139°45'0 0.0
2018-Jun-15 02:00N 35°31' E 139°45'1 2.2
2018-Jun-15 01:30N 35°30' E 139°44'4 7.7
2018-Jun-15 01:00N 35°26' E 139°43'2 4.3
2018-Jun-15 00:30N 35°24' E 139°44'0 0.0
2018-Jun-15 00:00N 35°24' E 139°44'0 0.0
2018-Jun-14 23:30N 35°24' E 139°44'0 0.0
2018-Jun-14 23:00N 35°24' E 139°44'0 0.0
2018-Jun-14 22:30N 35°24' E 139°44'0 0.0
2018-Jun-14 21:57N 35°24' E 139°44'0 0.0
2018-Jun-14 21:30N 35°24' E 139°44'0 0.1
2018-Jun-14 21:00N 35°24' E 139°44'5 9.2
2018-Jun-14 20:30N 35°20' E 139°43'610.5
2018-Jun-14 19:59N 35°15' E 139°47'510.4
2018-Jun-14 19:29N 35°10' E 139°45'  

Dump ship's entire track history